sensor_id;sensor_type;location;lat;lon;timestamp;P1;durP1;ratioP1;P2;durP2;ratioP2
55641;SDS011;41509;53.108;6.100;2023-04-03T00:01:37;1.10;;;0.57;;
55641;SDS011;41509;53.108;6.100;2023-04-03T00:04:04;2.53;;;0.40;;
55641;SDS011;41509;53.108;6.100;2023-04-03T00:06:32;1.67;;;0.40;;
55641;SDS011;41509;53.108;6.100;2023-04-03T00:08:58;1.33;;;0.68;;
55641;SDS011;41509;53.108;6.100;2023-04-03T00:11:24;2.30;;;0.47;;
55641;SDS011;41509;53.108;6.100;2023-04-03T00:13:50;0.52;;;0.20;;
55641;SDS011;41509;53.108;6.100;2023-04-03T00:16:16;1.02;;;0.32;;
55641;SDS011;41509;53.108;6.100;2023-04-03T00:18:42;2.27;;;0.73;;
55641;SDS011;41509;53.108;6.100;2023-04-03T00:21:10;1.67;;;0.32;;
55641;SDS011;41509;53.108;6.100;2023-04-03T00:23:38;1.25;;;0.50;;
55641;SDS011;41509;53.108;6.100;2023-04-03T00:26:03;2.10;;;0.37;;
55641;SDS011;41509;53.108;6.100;2023-04-03T00:28:29;1.97;;;0.93;;
55641;SDS011;41509;53.108;6.100;2023-04-03T00:30:55;0.63;;;0.27;;
55641;SDS011;41509;53.108;6.100;2023-04-03T00:33:20;1.47;;;0.57;;
55641;SDS011;41509;53.108;6.100;2023-04-03T00:35:49;1.70;;;0.35;;
55641;SDS011;41509;53.108;6.100;2023-04-03T00:38:15;0.87;;;0.40;;
55641;SDS011;41509;53.108;6.100;2023-04-03T00:40:42;3.30;;;1.30;;
55641;SDS011;41509;53.108;6.100;2023-04-03T00:43:14;1.42;;;0.35;;
55641;SDS011;41509;53.108;6.100;2023-04-03T00:45:42;4.53;;;0.75;;
55641;SDS011;41509;53.108;6.100;2023-04-03T00:48:11;1.27;;;0.43;;
55641;SDS011;41509;53.108;6.100;2023-04-03T00:50:41;1.42;;;0.45;;
55641;SDS011;41509;53.108;6.100;2023-04-03T00:53:10;2.92;;;0.20;;
55641;SDS011;41509;53.108;6.100;2023-04-03T00:55:41;2.97;;;0.57;;
55641;SDS011;41509;53.108;6.100;2023-04-03T00:58:08;1.35;;;0.52;;
55641;SDS011;41509;53.108;6.100;2023-04-03T01:00:37;1.77;;;0.40;;
55641;SDS011;41509;53.108;6.100;2023-04-03T01:03:05;3.25;;;1.10;;
55641;SDS011;41509;53.108;6.100;2023-04-03T01:05:31;1.87;;;0.73;;
55641;SDS011;41509;53.108;6.100;2023-04-03T01:07:57;1.45;;;0.40;;
55641;SDS011;41509;53.108;6.100;2023-04-03T01:10:23;1.08;;;0.43;;
55641;SDS011;41509;53.108;6.100;2023-04-03T01:12:52;2.53;;;0.40;;
55641;SDS011;41509;53.108;6.100;2023-04-03T01:15:19;1.20;;;0.30;;
55641;SDS011;41509;53.108;6.100;2023-04-03T01:17:54;1.23;;;0.60;;
55641;SDS011;41509;53.108;6.100;2023-04-03T01:28:06;3.72;;;0.73;;
55641;SDS011;41509;53.108;6.100;2023-04-03T01:30:36;2.42;;;0.40;;
55641;SDS011;41509;53.108;6.100;2023-04-03T01:33:10;2.30;;;0.40;;
55641;SDS011;41509;53.108;6.100;2023-04-03T01:35:37;1.30;;;0.40;;
55641;SDS011;41509;53.108;6.100;2023-04-03T01:38:02;2.17;;;0.40;;
55641;SDS011;41509;53.108;6.100;2023-04-03T01:40:28;2.83;;;0.30;;
55641;SDS011;41509;53.108;6.100;2023-04-03T01:42:57;1.52;;;0.45;;
55641;SDS011;41509;53.108;6.100;2023-04-03T01:45:22;2.13;;;0.67;;
55641;SDS011;41509;53.108;6.100;2023-04-03T01:47:48;3.57;;;0.67;;
55641;SDS011;41509;53.108;6.100;2023-04-03T01:50:13;2.67;;;0.60;;
55641;SDS011;41509;53.108;6.100;2023-04-03T01:52:39;2.57;;;0.60;;
55641;SDS011;41509;53.108;6.100;2023-04-03T01:55:05;0.50;;;0.30;;
55641;SDS011;41509;53.108;6.100;2023-04-03T01:57:31;1.92;;;0.57;;
55641;SDS011;41509;53.108;6.100;2023-04-03T01:59:57;2.63;;;1.10;;
55641;SDS011;41509;53.108;6.100;2023-04-03T02:02:22;2.87;;;0.60;;
55641;SDS011;41509;53.108;6.100;2023-04-03T02:04:48;3.57;;;0.57;;
55641;SDS011;41509;53.108;6.100;2023-04-03T02:07:13;1.00;;;0.57;;
55641;SDS011;41509;53.108;6.100;2023-04-03T02:09:39;2.00;;;0.60;;
55641;SDS011;41509;53.108;6.100;2023-04-03T02:12:05;4.23;;;0.70;;
55641;SDS011;41509;53.108;6.100;2023-04-03T02:14:31;1.57;;;0.83;;
55641;SDS011;41509;53.108;6.100;2023-04-03T02:16:56;1.83;;;0.60;;
55641;SDS011;41509;53.108;6.100;2023-04-03T02:19:22;1.87;;;0.60;;
55641;SDS011;41509;53.108;6.100;2023-04-03T02:21:48;7.72;;;1.17;;
55641;SDS011;41509;53.108;6.100;2023-04-03T02:24:14;1.60;;;0.77;;
55641;SDS011;41509;53.108;6.100;2023-04-03T02:26:40;6.37;;;2.40;;
55641;SDS011;41509;53.108;6.100;2023-04-03T02:29:06;5.70;;;2.53;;
55641;SDS011;41509;53.108;6.100;2023-04-03T02:31:31;2.30;;;1.33;;
55641;SDS011;41509;53.108;6.100;2023-04-03T02:33:57;3.00;;;1.07;;
55641;SDS011;41509;53.108;6.100;2023-04-03T02:36:22;4.23;;;0.63;;
55641;SDS011;41509;53.108;6.100;2023-04-03T02:38:48;2.97;;;0.80;;
55641;SDS011;41509;53.108;6.100;2023-04-03T02:41:14;4.97;;;0.70;;
55641;SDS011;41509;53.108;6.100;2023-04-03T02:43:40;2.37;;;0.77;;
55641;SDS011;41509;53.108;6.100;2023-04-03T02:46:05;2.97;;;0.67;;
55641;SDS011;41509;53.108;6.100;2023-04-03T02:48:31;1.85;;;0.63;;
55641;SDS011;41509;53.108;6.100;2023-04-03T02:50:57;2.73;;;0.70;;
55641;SDS011;41509;53.108;6.100;2023-04-03T02:53:23;1.73;;;1.00;;
55641;SDS011;41509;53.108;6.100;2023-04-03T02:55:48;2.77;;;0.80;;
55641;SDS011;41509;53.108;6.100;2023-04-03T02:58:15;4.10;;;1.33;;
55641;SDS011;41509;53.108;6.100;2023-04-03T03:00:41;2.80;;;0.80;;
55641;SDS011;41509;53.108;6.100;2023-04-03T03:03:09;2.83;;;1.00;;
55641;SDS011;41509;53.108;6.100;2023-04-03T03:05:35;4.53;;;1.20;;
55641;SDS011;41509;53.108;6.100;2023-04-03T03:08:01;2.17;;;0.83;;
55641;SDS011;41509;53.108;6.100;2023-04-03T03:10:27;2.92;;;1.00;;
55641;SDS011;41509;53.108;6.100;2023-04-03T03:12:52;3.37;;;1.00;;
55641;SDS011;41509;53.108;6.100;2023-04-03T03:15:18;2.50;;;0.83;;
55641;SDS011;41509;53.108;6.100;2023-04-03T03:17:44;3.13;;;0.80;;
55641;SDS011;41509;53.108;6.100;2023-04-03T03:20:10;2.85;;;0.93;;
55641;SDS011;41509;53.108;6.100;2023-04-03T03:22:37;4.32;;;1.13;;
55641;SDS011;41509;53.108;6.100;2023-04-03T03:25:03;5.07;;;0.90;;
55641;SDS011;41509;53.108;6.100;2023-04-03T03:27:32;3.42;;;0.77;;
55641;SDS011;41509;53.108;6.100;2023-04-03T03:29:58;2.43;;;0.67;;
55641;SDS011;41509;53.108;6.100;2023-04-03T03:32:23;2.07;;;0.77;;
55641;SDS011;41509;53.108;6.100;2023-04-03T03:34:49;6.00;;;1.00;;
55641;SDS011;41509;53.108;6.100;2023-04-03T03:37:15;5.00;;;1.07;;
55641;SDS011;41509;53.108;6.100;2023-04-03T03:39:42;4.43;;;1.15;;
55641;SDS011;41509;53.108;6.100;2023-04-03T03:42:08;3.87;;;0.60;;
55641;SDS011;41509;53.108;6.100;2023-04-03T03:44:37;3.47;;;1.20;;
55641;SDS011;41509;53.108;6.100;2023-04-03T03:47:03;2.83;;;1.03;;
55641;SDS011;41509;53.108;6.100;2023-04-03T03:49:30;2.67;;;0.95;;
55641;SDS011;41509;53.108;6.100;2023-04-03T03:51:56;4.87;;;0.93;;
55641;SDS011;41509;53.108;6.100;2023-04-03T03:54:22;2.83;;;1.03;;
55641;SDS011;41509;53.108;6.100;2023-04-03T03:56:47;1.97;;;1.07;;
55641;SDS011;41509;53.108;6.100;2023-04-03T03:59:13;3.87;;;1.20;;
55641;SDS011;41509;53.108;6.100;2023-04-03T04:01:39;5.70;;;1.38;;
55641;SDS011;41509;53.108;6.100;2023-04-03T04:04:05;4.00;;;1.00;;
55641;SDS011;41509;53.108;6.100;2023-04-03T04:06:30;4.80;;;0.93;;
55641;SDS011;41509;53.108;6.100;2023-04-03T04:08:56;3.13;;;0.83;;
55641;SDS011;41509;53.108;6.100;2023-04-03T04:11:21;1.60;;;0.80;;
55641;SDS011;41509;53.108;6.100;2023-04-03T04:13:47;1.47;;;0.77;;
55641;SDS011;41509;53.108;6.100;2023-04-03T04:16:13;3.90;;;1.30;;
55641;SDS011;41509;53.108;6.100;2023-04-03T04:18:38;7.83;;;1.23;;
55641;SDS011;41509;53.108;6.100;2023-04-03T04:21:07;3.87;;;1.20;;
55641;SDS011;41509;53.108;6.100;2023-04-03T04:23:33;4.93;;;1.00;;
55641;SDS011;41509;53.108;6.100;2023-04-03T04:25:58;2.47;;;1.70;;
55641;SDS011;41509;53.108;6.100;2023-04-03T04:28:27;3.65;;;1.20;;
55641;SDS011;41509;53.108;6.100;2023-04-03T04:30:52;5.20;;;1.43;;
55641;SDS011;41509;53.108;6.100;2023-04-03T04:33:18;4.20;;;1.00;;
55641;SDS011;41509;53.108;6.100;2023-04-03T04:35:43;3.47;;;1.33;;
55641;SDS011;41509;53.108;6.100;2023-04-03T04:38:11;10.73;;;2.25;;
55641;SDS011;41509;53.108;6.100;2023-04-03T04:40:37;2.40;;;1.10;;
55641;SDS011;41509;53.108;6.100;2023-04-03T04:43:02;7.10;;;1.20;;
55641;SDS011;41509;53.108;6.100;2023-04-03T04:45:28;2.03;;;0.90;;
55641;SDS011;41509;53.108;6.100;2023-04-03T04:47:57;3.53;;;1.30;;
55641;SDS011;41509;53.108;6.100;2023-04-03T04:50:23;5.32;;;1.00;;
55641;SDS011;41509;53.108;6.100;2023-04-03T04:52:48;2.77;;;1.27;;
55641;SDS011;41509;53.108;6.100;2023-04-03T04:55:14;4.57;;;1.10;;
55641;SDS011;41509;53.108;6.100;2023-04-03T04:57:40;2.77;;;1.10;;
55641;SDS011;41509;53.108;6.100;2023-04-03T05:00:05;2.87;;;1.13;;
55641;SDS011;41509;53.108;6.100;2023-04-03T05:02:32;5.45;;;1.13;;
55641;SDS011;41509;53.108;6.100;2023-04-03T05:04:57;2.92;;;1.30;;
55641;SDS011;41509;53.108;6.100;2023-04-03T05:07:23;6.73;;;1.20;;
55641;SDS011;41509;53.108;6.100;2023-04-03T05:09:49;4.00;;;1.40;;
55641;SDS011;41509;53.108;6.100;2023-04-03T05:12:15;3.03;;;0.97;;
55641;SDS011;41509;53.108;6.100;2023-04-03T05:14:41;2.65;;;0.93;;
55641;SDS011;41509;53.108;6.100;2023-04-03T05:17:07;4.97;;;1.10;;
55641;SDS011;41509;53.108;6.100;2023-04-03T05:19:33;2.17;;;1.03;;
55641;SDS011;41509;53.108;6.100;2023-04-03T05:22:01;2.23;;;1.20;;
55641;SDS011;41509;53.108;6.100;2023-04-03T05:24:27;4.30;;;1.40;;
55641;SDS011;41509;53.108;6.100;2023-04-03T05:26:53;6.83;;;1.40;;
55641;SDS011;41509;53.108;6.100;2023-04-03T05:29:18;5.53;;;1.40;;
55641;SDS011;41509;53.108;6.100;2023-04-03T05:31:44;2.77;;;1.17;;
55641;SDS011;41509;53.108;6.100;2023-04-03T05:34:13;2.90;;;1.10;;
55641;SDS011;41509;53.108;6.100;2023-04-03T05:36:39;5.05;;;1.20;;
55641;SDS011;41509;53.108;6.100;2023-04-03T05:39:05;4.47;;;1.20;;
55641;SDS011;41509;53.108;6.100;2023-04-03T05:41:31;3.17;;;1.13;;
55641;SDS011;41509;53.108;6.100;2023-04-03T05:43:56;5.83;;;1.23;;
55641;SDS011;41509;53.108;6.100;2023-04-03T05:46:22;3.60;;;1.10;;
55641;SDS011;41509;53.108;6.100;2023-04-03T05:48:48;3.83;;;1.07;;
55641;SDS011;41509;53.108;6.100;2023-04-03T05:51:21;4.90;;;1.70;;
55641;SDS011;41509;53.108;6.100;2023-04-03T05:54:20;3.08;;;0.95;;
55641;SDS011;41509;53.108;6.100;2023-04-03T05:56:57;3.03;;;1.20;;
55641;SDS011;41509;53.108;6.100;2023-04-03T05:59:26;7.28;;;1.27;;
55641;SDS011;41509;53.108;6.100;2023-04-03T06:01:55;4.20;;;1.23;;
55641;SDS011;41509;53.108;6.100;2023-04-03T06:04:21;3.38;;;1.40;;
55641;SDS011;41509;53.108;6.100;2023-04-03T06:06:54;4.80;;;1.37;;
55641;SDS011;41509;53.108;6.100;2023-04-03T06:09:52;4.78;;;1.40;;
55641;SDS011;41509;53.108;6.100;2023-04-03T06:12:23;4.25;;;1.40;;
55641;SDS011;41509;53.108;6.100;2023-04-03T06:15:11;2.97;;;1.40;;
55641;SDS011;41509;53.108;6.100;2023-04-03T06:17:40;5.30;;;1.50;;
55641;SDS011;41509;53.108;6.100;2023-04-03T06:20:23;3.43;;;1.47;;
55641;SDS011;41509;53.108;6.100;2023-04-03T06:23:06;3.90;;;1.40;;
55641;SDS011;41509;53.108;6.100;2023-04-03T06:25:42;9.50;;;2.03;;
55641;SDS011;41509;53.108;6.100;2023-04-03T06:28:19;4.18;;;1.27;;
55641;SDS011;41509;53.108;6.100;2023-04-03T06:30:48;5.18;;;1.30;;
55641;SDS011;41509;53.108;6.100;2023-04-03T06:33:13;5.87;;;2.33;;
55641;SDS011;41509;53.108;6.100;2023-04-03T06:35:42;4.27;;;1.37;;
55641;SDS011;41509;53.108;6.100;2023-04-03T06:40:51;2.63;;;1.35;;
55641;SDS011;41509;53.108;6.100;2023-04-03T06:43:23;4.57;;;1.55;;
55641;SDS011;41509;53.108;6.100;2023-04-03T06:45:52;4.50;;;1.73;;
55641;SDS011;41509;53.108;6.100;2023-04-03T06:48:43;5.78;;;1.48;;
55641;SDS011;41509;53.108;6.100;2023-04-03T06:53:49;2.95;;;1.50;;
55641;SDS011;41509;53.108;6.100;2023-04-03T06:56:22;4.38;;;1.70;;
55641;SDS011;41509;53.108;6.100;2023-04-03T06:58:48;4.03;;;1.50;;
55641;SDS011;41509;53.108;6.100;2023-04-03T07:01:17;4.35;;;1.98;;
55641;SDS011;41509;53.108;6.100;2023-04-03T07:03:44;4.22;;;1.50;;
55641;SDS011;41509;53.108;6.100;2023-04-03T07:06:17;6.00;;;1.95;;
55641;SDS011;41509;53.108;6.100;2023-04-03T07:08:43;9.77;;;1.50;;
55641;SDS011;41509;53.108;6.100;2023-04-03T07:13:36;4.35;;;1.35;;
55641;SDS011;41509;53.108;6.100;2023-04-03T07:16:03;4.00;;;1.25;;
55641;SDS011;41509;53.108;6.100;2023-04-03T07:18:30;7.68;;;1.40;;
55641;SDS011;41509;53.108;6.100;2023-04-03T07:20:57;5.97;;;1.63;;
55641;SDS011;41509;53.108;6.100;2023-04-03T07:23:25;3.93;;;1.40;;
55641;SDS011;41509;53.108;6.100;2023-04-03T07:25:51;7.60;;;1.30;;
55641;SDS011;41509;53.108;6.100;2023-04-03T07:28:20;7.10;;;1.85;;
55641;SDS011;41509;53.108;6.100;2023-04-03T07:31:02;5.22;;;1.90;;
55641;SDS011;41509;53.108;6.100;2023-04-03T07:33:38;5.13;;;1.13;;
55641;SDS011;41509;53.108;6.100;2023-04-03T07:36:17;3.45;;;1.00;;
55641;SDS011;41509;53.108;6.100;2023-04-03T07:38:45;2.20;;;1.02;;
55641;SDS011;41509;53.108;6.100;2023-04-03T07:41:14;2.07;;;1.03;;
55641;SDS011;41509;53.108;6.100;2023-04-03T07:43:42;4.65;;;1.17;;
55641;SDS011;41509;53.108;6.100;2023-04-03T07:46:11;5.55;;;1.83;;
55641;SDS011;41509;53.108;6.100;2023-04-03T07:51:49;5.55;;;1.13;;
55641;SDS011;41509;53.108;6.100;2023-04-03T07:54:15;4.32;;;1.35;;
55641;SDS011;41509;53.108;6.100;2023-04-03T07:57:07;4.15;;;1.60;;
55641;SDS011;41509;53.108;6.100;2023-04-03T07:59:44;5.57;;;1.25;;
55641;SDS011;41509;53.108;6.100;2023-04-03T08:02:22;3.22;;;1.42;;
55641;SDS011;41509;53.108;6.100;2023-04-03T08:14:43;4.40;;;1.10;;
55641;SDS011;41509;53.108;6.100;2023-04-03T08:17:49;6.97;;;0.93;;
55641;SDS011;41509;53.108;6.100;2023-04-03T08:20:21;1.90;;;0.90;;
55641;SDS011;41509;53.108;6.100;2023-04-03T08:22:56;3.30;;;0.73;;
55641;SDS011;41509;53.108;6.100;2023-04-03T08:29:15;2.80;;;0.90;;
55641;SDS011;41509;53.108;6.100;2023-04-03T08:34:50;3.50;;;0.70;;
55641;SDS011;41509;53.108;6.100;2023-04-03T08:37:48;3.30;;;1.10;;
55641;SDS011;41509;53.108;6.100;2023-04-03T08:40:43;4.07;;;1.42;;
55641;SDS011;41509;53.108;6.100;2023-04-03T08:43:19;2.47;;;0.90;;
55641;SDS011;41509;53.108;6.100;2023-04-03T08:46:05;2.58;;;0.70;;
55641;SDS011;41509;53.108;6.100;2023-04-03T08:48:50;3.83;;;0.70;;
55641;SDS011;41509;53.108;6.100;2023-04-03T08:51:22;3.65;;;0.93;;
55641;SDS011;41509;53.108;6.100;2023-04-03T08:54:25;4.70;;;0.80;;
55641;SDS011;41509;53.108;6.100;2023-04-03T08:57:44;1.75;;;0.55;;
55641;SDS011;41509;53.108;6.100;2023-04-03T09:12:19;4.18;;;0.98;;
55641;SDS011;41509;53.108;6.100;2023-04-03T09:23:55;2.17;;;0.57;;
55641;SDS011;41509;53.108;6.100;2023-04-03T09:29:49;1.52;;;0.60;;
55641;SDS011;41509;53.108;6.100;2023-04-03T09:32:44;2.28;;;0.73;;
55641;SDS011;41509;53.108;6.100;2023-04-03T09:35:32;3.05;;;0.60;;
55641;SDS011;41509;53.108;6.100;2023-04-03T09:38:16;2.65;;;0.70;;
55641;SDS011;41509;53.108;6.100;2023-04-03T09:44:00;2.03;;;0.65;;
55641;SDS011;41509;53.108;6.100;2023-04-03T09:46:45;2.38;;;0.65;;
55641;SDS011;41509;53.108;6.100;2023-04-03T09:49:18;1.85;;;0.50;;
55641;SDS011;41509;53.108;6.100;2023-04-03T09:51:44;3.58;;;0.82;;
55641;SDS011;41509;53.108;6.100;2023-04-03T09:54:23;2.65;;;0.50;;
55641;SDS011;41509;53.108;6.100;2023-04-03T09:56:57;3.45;;;0.70;;
55641;SDS011;41509;53.108;6.100;2023-04-03T09:59:31;3.30;;;0.60;;
55641;SDS011;41509;53.108;6.100;2023-04-03T10:02:21;1.98;;;0.70;;
55641;SDS011;41509;53.108;6.100;2023-04-03T10:04:47;2.67;;;0.77;;
55641;SDS011;41509;53.108;6.100;2023-04-03T10:07:26;2.33;;;0.47;;
55641;SDS011;41509;53.108;6.100;2023-04-03T10:10:03;1.45;;;0.43;;
55641;SDS011;41509;53.108;6.100;2023-04-03T10:12:43;2.63;;;0.47;;
55641;SDS011;41509;53.108;6.100;2023-04-03T10:15:16;1.42;;;0.40;;
55641;SDS011;41509;53.108;6.100;2023-04-03T10:20:37;3.20;;;0.70;;
55641;SDS011;41509;53.108;6.100;2023-04-03T10:39:15;4.57;;;0.73;;
55641;SDS011;41509;53.108;6.100;2023-04-03T10:57:52;0.68;;;0.30;;
55641;SDS011;41509;53.108;6.100;2023-04-03T11:00:28;1.23;;;0.30;;
55641;SDS011;41509;53.108;6.100;2023-04-03T11:03:14;1.73;;;0.43;;
55641;SDS011;41509;53.108;6.100;2023-04-03T11:05:50;2.10;;;0.20;;
55641;SDS011;41509;53.108;6.100;2023-04-03T11:08:29;1.90;;;0.50;;
55641;SDS011;41509;53.108;6.100;2023-04-03T11:11:00;1.42;;;0.52;;
55641;SDS011;41509;53.108;6.100;2023-04-03T11:13:46;1.52;;;0.47;;
55641;SDS011;41509;53.108;6.100;2023-04-03T11:16:23;1.65;;;0.80;;
55641;SDS011;41509;53.108;6.100;2023-04-03T11:18:55;0.95;;;0.50;;
55641;SDS011;41509;53.108;6.100;2023-04-03T11:23:57;1.00;;;0.40;;
55641;SDS011;41509;53.108;6.100;2023-04-03T11:26:26;0.90;;;0.35;;
55641;SDS011;41509;53.108;6.100;2023-04-03T11:29:06;4.72;;;0.60;;
55641;SDS011;41509;53.108;6.100;2023-04-03T11:34:45;0.98;;;0.40;;
55641;SDS011;41509;53.108;6.100;2023-04-03T11:37:23;1.00;;;0.20;;
55641;SDS011;41509;53.108;6.100;2023-04-03T11:40:16;1.98;;;0.63;;
55641;SDS011;41509;53.108;6.100;2023-04-03T11:42:48;0.22;;;0.15;;
55641;SDS011;41509;53.108;6.100;2023-04-03T11:55:44;2.27;;;0.50;;
55641;SDS011;41509;53.108;6.100;2023-04-03T11:58:13;1.60;;;0.57;;
55641;SDS011;41509;53.108;6.100;2023-04-03T12:08:28;1.08;;;0.43;;
55641;SDS011;41509;53.108;6.100;2023-04-03T12:22:11;1.50;;;0.52;;
55641;SDS011;41509;53.108;6.100;2023-04-03T12:24:40;1.92;;;0.38;;
55641;SDS011;41509;53.108;6.100;2023-04-03T12:27:21;2.20;;;0.57;;
55641;SDS011;41509;53.108;6.100;2023-04-03T12:33:15;1.35;;;0.40;;
55641;SDS011;41509;53.108;6.100;2023-04-03T12:36:07;2.17;;;0.70;;
55641;SDS011;41509;53.108;6.100;2023-04-03T12:41:32;2.05;;;0.80;;
55641;SDS011;41509;53.108;6.100;2023-04-03T12:44:07;1.23;;;0.50;;
55641;SDS011;41509;53.108;6.100;2023-04-03T12:46:51;1.48;;;0.50;;
55641;SDS011;41509;53.108;6.100;2023-04-03T12:49:33;1.15;;;0.70;;
55641;SDS011;41509;53.108;6.100;2023-04-03T12:52:04;1.30;;;0.57;;
55641;SDS011;41509;53.108;6.100;2023-04-03T12:54:43;2.05;;;0.88;;
55641;SDS011;41509;53.108;6.100;2023-04-03T12:57:12;4.35;;;0.60;;
55641;SDS011;41509;53.108;6.100;2023-04-03T12:59:46;1.58;;;0.50;;
55641;SDS011;41509;53.108;6.100;2023-04-03T13:02:26;0.93;;;0.45;;
55641;SDS011;41509;53.108;6.100;2023-04-03T13:05:05;1.10;;;0.30;;
55641;SDS011;41509;53.108;6.100;2023-04-03T13:07:34;3.17;;;0.60;;
55641;SDS011;41509;53.108;6.100;2023-04-03T13:12:33;1.75;;;0.52;;
55641;SDS011;41509;53.108;6.100;2023-04-03T13:15:02;1.95;;;0.63;;
55641;SDS011;41509;53.108;6.100;2023-04-03T13:17:41;3.05;;;0.52;;
55641;SDS011;41509;53.108;6.100;2023-04-03T13:20:12;2.58;;;0.50;;
55641;SDS011;41509;53.108;6.100;2023-04-03T13:23:14;4.43;;;0.90;;
55641;SDS011;41509;53.108;6.100;2023-04-03T13:25:43;2.50;;;0.40;;
55641;SDS011;41509;53.108;6.100;2023-04-03T13:28:15;1.90;;;0.80;;
55641;SDS011;41509;53.108;6.100;2023-04-03T13:30:55;2.53;;;0.77;;
55641;SDS011;41509;53.108;6.100;2023-04-03T13:33:25;1.33;;;0.50;;
55641;SDS011;41509;53.108;6.100;2023-04-03T13:35:57;4.20;;;0.80;;
55641;SDS011;41509;53.108;6.100;2023-04-03T13:38:30;1.77;;;0.45;;
55641;SDS011;41509;53.108;6.100;2023-04-03T13:40:58;0.80;;;0.40;;
55641;SDS011;41509;53.108;6.100;2023-04-03T13:43:28;0.93;;;0.38;;
55641;SDS011;41509;53.108;6.100;2023-04-03T13:46:00;2.45;;;0.55;;
55641;SDS011;41509;53.108;6.100;2023-04-03T13:48:45;3.53;;;0.90;;
55641;SDS011;41509;53.108;6.100;2023-04-03T13:56:24;1.33;;;0.77;;
55641;SDS011;41509;53.108;6.100;2023-04-03T14:04:31;1.92;;;0.73;;
55641;SDS011;41509;53.108;6.100;2023-04-03T14:06:57;2.67;;;0.80;;
55641;SDS011;41509;53.108;6.100;2023-04-03T14:09:24;2.97;;;1.00;;
55641;SDS011;41509;53.108;6.100;2023-04-03T14:11:53;2.28;;;0.57;;
55641;SDS011;41509;53.108;6.100;2023-04-03T14:14:27;2.72;;;0.50;;
55641;SDS011;41509;53.108;6.100;2023-04-03T14:16:57;1.67;;;0.60;;
55641;SDS011;41509;53.108;6.100;2023-04-03T14:21:55;2.38;;;0.57;;
55641;SDS011;41509;53.108;6.100;2023-04-03T14:24:22;1.38;;;0.60;;
55641;SDS011;41509;53.108;6.100;2023-04-03T14:29:15;4.37;;;2.50;;
55641;SDS011;41509;53.108;6.100;2023-04-03T14:31:41;4.10;;;1.08;;
55641;SDS011;41509;53.108;6.100;2023-04-03T14:34:09;5.47;;;0.90;;
55641;SDS011;41509;53.108;6.100;2023-04-03T14:36:37;2.65;;;0.63;;
55641;SDS011;41509;53.108;6.100;2023-04-03T14:39:04;2.45;;;0.85;;
55641;SDS011;41509;53.108;6.100;2023-04-03T14:41:30;2.08;;;0.80;;
55641;SDS011;41509;53.108;6.100;2023-04-03T14:43:55;3.58;;;1.10;;
55641;SDS011;41509;53.108;6.100;2023-04-03T14:48:55;1.98;;;1.02;;
55641;SDS011;41509;53.108;6.100;2023-04-03T14:51:21;3.10;;;1.70;;
55641;SDS011;41509;53.108;6.100;2023-04-03T14:53:47;16.80;;;15.13;;
55641;SDS011;41509;53.108;6.100;2023-04-03T14:56:16;131.10;;;104.72;;
55641;SDS011;41509;53.108;6.100;2023-04-03T14:58:52;90.15;;;29.23;;
55641;SDS011;41509;53.108;6.100;2023-04-03T15:01:24;50.65;;;22.83;;
55641;SDS011;41509;53.108;6.100;2023-04-03T15:03:50;20.67;;;12.23;;
55641;SDS011;41509;53.108;6.100;2023-04-03T15:06:16;13.23;;;5.07;;
55641;SDS011;41509;53.108;6.100;2023-04-03T15:08:42;16.42;;;6.40;;
55641;SDS011;41509;53.108;6.100;2023-04-03T15:11:09;13.52;;;5.10;;
55641;SDS011;41509;53.108;6.100;2023-04-03T15:13:36;26.58;;;15.48;;
55641;SDS011;41509;53.108;6.100;2023-04-03T15:16:02;7.93;;;4.18;;
55641;SDS011;41509;53.108;6.100;2023-04-03T15:20:56;4.95;;;3.08;;
55641;SDS011;41509;53.108;6.100;2023-04-03T15:23:22;2.67;;;1.33;;
55641;SDS011;41509;53.108;6.100;2023-04-03T15:25:51;3.83;;;1.25;;
55641;SDS011;41509;53.108;6.100;2023-04-03T15:28:24;3.55;;;1.40;;
55641;SDS011;41509;53.108;6.100;2023-04-03T15:31:07;6.60;;;2.72;;
55641;SDS011;41509;53.108;6.100;2023-04-03T15:35:59;12.85;;;4.30;;
55641;SDS011;41509;53.108;6.100;2023-04-03T15:38:25;8.30;;;3.03;;
55641;SDS011;41509;53.108;6.100;2023-04-03T15:40:51;10.07;;;4.03;;
55641;SDS011;41509;53.108;6.100;2023-04-03T15:43:17;3.30;;;1.30;;
55641;SDS011;41509;53.108;6.100;2023-04-03T15:45:43;2.40;;;1.25;;
55641;SDS011;41509;53.108;6.100;2023-04-03T15:48:10;1.92;;;0.65;;
55641;SDS011;41509;53.108;6.100;2023-04-03T15:53:02;3.63;;;0.98;;
55641;SDS011;41509;53.108;6.100;2023-04-03T15:55:29;2.10;;;0.80;;
55641;SDS011;41509;53.108;6.100;2023-04-03T15:57:55;4.25;;;0.95;;
55641;SDS011;41509;53.108;6.100;2023-04-03T16:00:22;2.20;;;0.80;;
55641;SDS011;41509;53.108;6.100;2023-04-03T16:02:49;2.45;;;0.95;;
55641;SDS011;41509;53.108;6.100;2023-04-03T16:05:20;3.58;;;0.80;;
55641;SDS011;41509;53.108;6.100;2023-04-03T16:07:46;2.00;;;0.52;;
55641;SDS011;41509;53.108;6.100;2023-04-03T16:10:12;2.15;;;0.73;;
55641;SDS011;41509;53.108;6.100;2023-04-03T16:12:40;2.20;;;0.75;;
55641;SDS011;41509;53.108;6.100;2023-04-03T16:15:06;2.72;;;0.80;;
55641;SDS011;41509;53.108;6.100;2023-04-03T16:17:32;1.73;;;0.73;;
55641;SDS011;41509;53.108;6.100;2023-04-03T16:19:59;2.30;;;0.95;;
55641;SDS011;41509;53.108;6.100;2023-04-03T16:22:26;2.22;;;0.80;;
55641;SDS011;41509;53.108;6.100;2023-04-03T16:24:53;1.30;;;0.57;;
55641;SDS011;41509;53.108;6.100;2023-04-03T16:27:20;2.15;;;0.70;;
55641;SDS011;41509;53.108;6.100;2023-04-03T16:29:46;3.33;;;0.50;;
55641;SDS011;41509;53.108;6.100;2023-04-03T16:32:12;1.33;;;1.00;;
55641;SDS011;41509;53.108;6.100;2023-04-03T16:34:38;3.08;;;0.50;;
55641;SDS011;41509;53.108;6.100;2023-04-03T16:37:05;2.10;;;0.60;;
55641;SDS011;41509;53.108;6.100;2023-04-03T16:39:33;1.10;;;0.40;;
55641;SDS011;41509;53.108;6.100;2023-04-03T16:41:59;1.77;;;0.82;;
55641;SDS011;41509;53.108;6.100;2023-04-03T16:44:25;2.20;;;1.10;;
55641;SDS011;41509;53.108;6.100;2023-04-03T16:46:51;2.47;;;0.40;;
55641;SDS011;41509;53.108;6.100;2023-04-03T16:49:17;2.50;;;0.88;;
55641;SDS011;41509;53.108;6.100;2023-04-03T16:51:45;2.25;;;0.82;;
55641;SDS011;41509;53.108;6.100;2023-04-03T16:54:11;1.35;;;0.38;;
55641;SDS011;41509;53.108;6.100;2023-04-03T16:56:38;5.47;;;0.93;;
55641;SDS011;41509;53.108;6.100;2023-04-03T16:59:04;7.07;;;2.20;;
55641;SDS011;41509;53.108;6.100;2023-04-03T17:01:33;3.50;;;0.85;;
55641;SDS011;41509;53.108;6.100;2023-04-03T17:03:59;2.45;;;1.05;;
55641;SDS011;41509;53.108;6.100;2023-04-03T17:06:25;2.75;;;0.90;;
55641;SDS011;41509;53.108;6.100;2023-04-03T17:08:51;3.07;;;0.70;;
55641;SDS011;41509;53.108;6.100;2023-04-03T17:11:19;3.30;;;1.05;;
55641;SDS011;41509;53.108;6.100;2023-04-03T17:13:45;2.75;;;0.60;;
55641;SDS011;41509;53.108;6.100;2023-04-03T17:16:12;5.37;;;0.77;;
55641;SDS011;41509;53.108;6.100;2023-04-03T17:18:42;2.22;;;0.52;;
55641;SDS011;41509;53.108;6.100;2023-04-03T17:21:09;3.15;;;0.80;;
55641;SDS011;41509;53.108;6.100;2023-04-03T17:23:35;2.83;;;0.80;;
55641;SDS011;41509;53.108;6.100;2023-04-03T17:26:02;3.28;;;0.82;;
55641;SDS011;41509;53.108;6.100;2023-04-03T17:28:29;4.07;;;1.20;;
55641;SDS011;41509;53.108;6.100;2023-04-03T17:30:55;2.78;;;0.90;;
55641;SDS011;41509;53.108;6.100;2023-04-03T17:33:23;2.58;;;0.80;;
55641;SDS011;41509;53.108;6.100;2023-04-03T17:35:57;3.38;;;0.90;;
55641;SDS011;41509;53.108;6.100;2023-04-03T17:38:25;2.47;;;0.77;;
55641;SDS011;41509;53.108;6.100;2023-04-03T17:40:51;2.35;;;0.60;;
55641;SDS011;41509;53.108;6.100;2023-04-03T17:43:20;1.92;;;0.70;;
55641;SDS011;41509;53.108;6.100;2023-04-03T17:45:45;3.77;;;0.90;;
55641;SDS011;41509;53.108;6.100;2023-04-03T17:48:11;2.40;;;0.80;;
55641;SDS011;41509;53.108;6.100;2023-04-03T17:50:37;3.00;;;1.00;;
55641;SDS011;41509;53.108;6.100;2023-04-03T17:53:02;2.33;;;0.83;;